PAVD METAR and TAF weather

Enter ICAO airport designator
Station Type Date Time Source
PAVD METAR 2018/12/13 07:56 UTC NOAA

PAVD 130756Z AUTO 00000KT 10SM FEW120 M07/M08 A2908 RMK AO2 SLP872 T10671078 400001067 FZRANO


Station Type Date Time Source
PAVD Decoded METAR 2018/12/13 07:56 UTC NOAA

Valdez 2, AK, United States (PAVD) 61-08N 146-16W
Dec 13, 2018 - 02:56 AM EST / 2018.12.13 0756 UTC
Wind: Calm:0
Visibility: 10 mile(s):0
Sky conditions: mostly clear
Temperature: 19.9 F (-6.7 C)
Dew Point: 18.0 F (-7.8 C)
Relative Humidity: 91%
Pressure (altimeter): 29.08 in. Hg (984 hPa)
ob: PAVD 130756Z AUTO 00000KT 10SM FEW120 M07/M08 A2908 RMK AO2 SLP872 T10671078 400001067 FZRANO
cycle: 8

Station Type Date Time Source
PAVD TAF 2018/12/13 06:27 UTC NOAA

TAF PAVD 130524Z 1306/1406 VRB04KT P6SM -SHSN BKN060
FM131200 VRB04KT 2SM -SN BR OVC025
FM131800 VRB04KT P6SM -SHSN SCT030 BKN050
AMD LTD TO CLD VIS AND WIND


Example: see airport list